sensor_id;sensor_type;location;lat;lon;timestamp;pressure;altitude;pressure_sealevel;temperature;humidity
74370;BME280;71062;44.520;11.342;2024-02-23T00:01:06;99784.44;;;14.47;63.24
74370;BME280;71062;44.520;11.342;2024-02-23T00:03:32;99796.59;;;14.57;63.14
74370;BME280;71062;44.520;11.342;2024-02-23T00:05:59;99762.31;;;14.49;63.25
74370;BME280;71062;44.520;11.342;2024-02-23T00:08:25;99780.28;;;14.53;63.02
74370;BME280;71062;44.520;11.342;2024-02-23T00:10:50;99754.34;;;14.43;63.29
74370;BME280;71062;44.520;11.342;2024-02-23T00:13:16;99764.97;;;14.54;63.46
74370;BME280;71062;44.520;11.342;2024-02-23T00:15:41;99773.97;;;14.57;63.85
74370;BME280;71062;44.520;11.342;2024-02-23T00:18:09;99756.34;;;14.60;63.79
74370;BME280;71062;44.520;11.342;2024-02-23T00:20:35;99744.00;;;14.55;64.14
74370;BME280;71062;44.520;11.342;2024-02-23T00:23:02;99751.19;;;14.62;64.43
74370;BME280;71062;44.520;11.342;2024-02-23T00:25:28;99729.56;;;14.57;64.25
74370;BME280;71062;44.520;11.342;2024-02-23T00:27:53;99722.56;;;14.54;64.29
74370;BME280;71062;44.520;11.342;2024-02-23T00:30:19;99715.41;;;14.48;64.74
74370;BME280;71062;44.520;11.342;2024-02-23T00:32:45;99722.22;;;14.56;64.13
74370;BME280;71062;44.520;11.342;2024-02-23T00:35:10;99716.41;;;14.52;64.13
74370;BME280;71062;44.520;11.342;2024-02-23T00:37:36;99712.09;;;14.46;64.46
74370;BME280;71062;44.520;11.342;2024-02-23T00:40:03;99700.44;;;14.57;64.58
74370;BME280;71062;44.520;11.342;2024-02-23T00:42:30;99695.47;;;14.53;64.75
74370;BME280;71062;44.520;11.342;2024-02-23T00:44:59;99677.66;;;14.44;64.60
74370;BME280;71062;44.520;11.342;2024-02-23T00:47:26;99694.13;;;14.60;64.39
74370;BME280;71062;44.520;11.342;2024-02-23T00:49:52;99666.00;;;14.46;64.76
74370;BME280;71062;44.520;11.342;2024-02-23T00:52:17;99694.28;;;14.63;65.20
74370;BME280;71062;44.520;11.342;2024-02-23T00:54:43;99689.47;;;14.64;65.27
74370;BME280;71062;44.520;11.342;2024-02-23T00:57:09;99675.69;;;14.53;65.28
74370;BME280;71062;44.520;11.342;2024-02-23T00:59:34;99655.22;;;14.57;65.23
74370;BME280;71062;44.520;11.342;2024-02-23T01:02:00;99654.53;;;14.60;65.82
74370;BME280;71062;44.520;11.342;2024-02-23T01:04:25;99666.50;;;14.57;65.84
74370;BME280;71062;44.520;11.342;2024-02-23T01:06:51;99622.59;;;14.33;65.89
74370;BME280;71062;44.520;11.342;2024-02-23T01:09:17;99623.28;;;14.47;65.66
74370;BME280;71062;44.520;11.342;2024-02-23T01:11:48;99621.28;;;14.48;65.64
74370;BME280;71062;44.520;11.342;2024-02-23T01:14:14;99631.56;;;14.52;66.29
74370;BME280;71062;44.520;11.342;2024-02-23T01:16:39;99611.44;;;14.54;65.60
74370;BME280;71062;44.520;11.342;2024-02-23T01:19:05;99636.56;;;14.55;66.45
74370;BME280;71062;44.520;11.342;2024-02-23T01:21:31;99640.06;;;14.61;66.38
74370;BME280;71062;44.520;11.342;2024-02-23T01:23:57;99619.25;;;14.48;66.65
74370;BME280;71062;44.520;11.342;2024-02-23T01:26:23;99613.94;;;14.55;66.57
74370;BME280;71062;44.520;11.342;2024-02-23T01:28:49;99604.66;;;14.46;66.88
74370;BME280;71062;44.520;11.342;2024-02-23T01:31:14;99602.31;;;14.48;66.89
74370;BME280;71062;44.520;11.342;2024-02-23T01:33:40;99601.84;;;14.46;66.82
74370;BME280;71062;44.520;11.342;2024-02-23T01:36:07;99591.84;;;14.49;66.45
74370;BME280;71062;44.520;11.342;2024-02-23T01:38:33;99593.69;;;14.53;66.66
74370;BME280;71062;44.520;11.342;2024-02-23T01:40:59;99578.03;;;14.56;66.11
74370;BME280;71062;44.520;11.342;2024-02-23T01:43:25;99601.97;;;14.59;66.21
74370;BME280;71062;44.520;11.342;2024-02-23T01:45:51;99595.66;;;14.62;66.25
74370;BME280;71062;44.520;11.342;2024-02-23T01:48:17;99592.16;;;14.56;66.33
74370;BME280;71062;44.520;11.342;2024-02-23T01:50:43;99586.34;;;14.52;66.41
74370;BME280;71062;44.520;11.342;2024-02-23T01:53:10;99593.31;;;14.64;66.22
74370;BME280;71062;44.520;11.342;2024-02-23T01:55:40;99587.00;;;14.67;65.92
74370;BME280;71062;44.520;11.342;2024-02-23T01:58:06;99575.50;;;14.63;66.07
74370;BME280;71062;44.520;11.342;2024-02-23T02:00:32;99567.56;;;14.57;65.71
74370;BME280;71062;44.520;11.342;2024-02-23T02:03:00;99565.41;;;14.53;65.03
74370;BME280;71062;44.520;11.342;2024-02-23T02:05:25;99555.38;;;14.65;64.68
74370;BME280;71062;44.520;11.342;2024-02-23T02:07:53;99536.06;;;14.67;64.12
74370;BME280;71062;44.520;11.342;2024-02-23T02:10:24;99541.25;;;14.65;64.59
74370;BME280;71062;44.520;11.342;2024-02-23T02:12:50;99520.78;;;14.68;64.31
74370;BME280;71062;44.520;11.342;2024-02-23T02:15:16;99523.78;;;14.63;65.12
74370;BME280;71062;44.520;11.342;2024-02-23T02:17:42;99525.09;;;14.65;64.67
74370;BME280;71062;44.520;11.342;2024-02-23T02:20:11;99508.84;;;14.53;65.57
74370;BME280;71062;44.520;11.342;2024-02-23T02:22:37;99505.16;;;14.62;65.33
74370;BME280;71062;44.520;11.342;2024-02-23T02:25:03;99506.81;;;14.63;64.93
74370;BME280;71062;44.520;11.342;2024-02-23T02:27:29;99499.81;;;14.69;65.28
74370;BME280;71062;44.520;11.342;2024-02-23T02:29:55;99486.84;;;14.68;65.16
74370;BME280;71062;44.520;11.342;2024-02-23T02:32:21;99472.22;;;14.66;64.63
74370;BME280;71062;44.520;11.342;2024-02-23T02:34:46;99466.41;;;14.62;64.96
74370;BME280;71062;44.520;11.342;2024-02-23T02:37:12;99472.88;;;14.63;64.85
74370;BME280;71062;44.520;11.342;2024-02-23T02:39:38;99466.38;;;14.71;64.68
74370;BME280;71062;44.520;11.342;2024-02-23T02:42:03;99463.25;;;14.64;65.35
74370;BME280;71062;44.520;11.342;2024-02-23T02:44:29;99459.91;;;14.62;65.65
74370;BME280;71062;44.520;11.342;2024-02-23T02:46:56;99444.13;;;14.52;66.04
74370;BME280;71062;44.520;11.342;2024-02-23T02:49:23;99462.56;;;14.67;66.32
74370;BME280;71062;44.520;11.342;2024-02-23T02:51:49;99442.94;;;14.62;66.41
74370;BME280;71062;44.520;11.342;2024-02-23T02:54:15;99452.75;;;14.55;66.71
74370;BME280;71062;44.520;11.342;2024-02-23T02:56:42;99442.94;;;14.62;66.57
74370;BME280;71062;44.520;11.342;2024-02-23T02:59:09;99456.59;;;14.60;66.68
74370;BME280;71062;44.520;11.342;2024-02-23T03:01:35;99466.41;;;14.62;66.60
74370;BME280;71062;44.520;11.342;2024-02-23T03:04:01;99446.06;;;14.69;66.71
74370;BME280;71062;44.520;11.342;2024-02-23T03:06:26;99445.97;;;14.57;67.36
74370;BME280;71062;44.520;11.342;2024-02-23T03:08:52;99444.78;;;14.57;67.83
74370;BME280;71062;44.520;11.342;2024-02-23T03:11:18;99422.34;;;14.52;68.04
74370;BME280;71062;44.520;11.342;2024-02-23T03:13:43;99430.00;;;14.61;68.08
74370;BME280;71062;44.520;11.342;2024-02-23T03:16:16;99414.03;;;14.56;67.99
74370;BME280;71062;44.520;11.342;2024-02-23T03:18:43;99429.16;;;14.60;68.22
74370;BME280;71062;44.520;11.342;2024-02-23T03:21:09;99419.28;;;14.75;67.75
74370;BME280;71062;44.520;11.342;2024-02-23T03:23:35;99420.94;;;14.76;67.63
74370;BME280;71062;44.520;11.342;2024-02-23T03:26:01;99429.75;;;14.74;67.32
74370;BME280;71062;44.520;11.342;2024-02-23T03:28:27;99442.88;;;14.79;67.96
74370;BME280;71062;44.520;11.342;2024-02-23T03:30:53;99413.63;;;14.75;68.18
74370;BME280;71062;44.520;11.342;2024-02-23T03:33:19;99402.00;;;14.68;68.00
74370;BME280;71062;44.520;11.342;2024-02-23T03:35:45;99405.59;;;14.77;67.47
74370;BME280;71062;44.520;11.342;2024-02-23T03:38:11;99395.97;;;14.78;67.14
74370;BME280;71062;44.520;11.342;2024-02-23T03:40:37;99398.31;;;14.76;67.50
74370;BME280;71062;44.520;11.342;2024-02-23T03:43:03;99384.00;;;14.72;67.53
74370;BME280;71062;44.520;11.342;2024-02-23T03:45:29;99388.63;;;14.77;67.23
74370;BME280;71062;44.520;11.342;2024-02-23T03:47:55;99386.16;;;14.75;67.71
74370;BME280;71062;44.520;11.342;2024-02-23T03:50:20;99391.94;;;14.79;67.44
74370;BME280;71062;44.520;11.342;2024-02-23T03:52:46;99393.34;;;14.73;68.00
74370;BME280;71062;44.520;11.342;2024-02-23T03:55:12;99388.19;;;14.66;68.87
74370;BME280;71062;44.520;11.342;2024-02-23T03:57:40;99383.38;;;14.67;69.08
74370;BME280;71062;44.520;11.342;2024-02-23T04:00:07;99371.84;;;14.72;69.25
74370;BME280;71062;44.520;11.342;2024-02-23T04:02:34;99374.78;;;14.54;69.87
74370;BME280;71062;44.520;11.342;2024-02-23T04:05:00;99366.09;;;14.60;69.76
74370;BME280;71062;44.520;11.342;2024-02-23T04:07:26;99342.34;;;14.61;69.74
74370;BME280;71062;44.520;11.342;2024-02-23T04:09:52;99362.41;;;14.68;69.15
74370;BME280;71062;44.520;11.342;2024-02-23T04:12:21;99344.88;;;14.53;69.90
74370;BME280;71062;44.520;11.342;2024-02-23T04:14:47;99377.41;;;14.60;70.06
74370;BME280;71062;44.520;11.342;2024-02-23T04:17:13;99383.75;;;14.57;70.10
74370;BME280;71062;44.520;11.342;2024-02-23T04:19:40;99365.41;;;14.63;69.95
74370;BME280;71062;44.520;11.342;2024-02-23T04:22:07;99370.06;;;14.67;69.74
74370;BME280;71062;44.520;11.342;2024-02-23T04:24:38;99349.97;;;14.60;70.13
74370;BME280;71062;44.520;11.342;2024-02-23T04:27:05;99366.41;;;14.67;69.98
74370;BME280;71062;44.520;11.342;2024-02-23T04:29:31;99345.81;;;14.57;69.93
74370;BME280;71062;44.520;11.342;2024-02-23T04:31:59;99352.75;;;14.69;69.39
74370;BME280;71062;44.520;11.342;2024-02-23T04:34:24;99355.09;;;14.67;69.97
74370;BME280;71062;44.520;11.342;2024-02-23T04:36:50;99356.75;;;14.68;69.97
74370;BME280;71062;44.520;11.342;2024-02-23T04:39:15;99343.91;;;14.70;69.41
74370;BME280;71062;44.520;11.342;2024-02-23T04:41:41;99343.56;;;14.72;69.10
74370;BME280;71062;44.520;11.342;2024-02-23T04:44:07;99338.41;;;14.74;68.87
74370;BME280;71062;44.520;11.342;2024-02-23T04:46:33;99331.47;;;14.71;68.95
74370;BME280;71062;44.520;11.342;2024-02-23T04:49:00;99324.47;;;14.69;69.07
74370;BME280;71062;44.520;11.342;2024-02-23T04:51:25;99320.47;;;14.70;69.18
74370;BME280;71062;44.520;11.342;2024-02-23T04:53:51;99314.66;;;14.66;69.57
74370;BME280;71062;44.520;11.342;2024-02-23T04:56:17;99341.44;;;14.69;69.66
74370;BME280;71062;44.520;11.342;2024-02-23T04:58:44;99317.84;;;14.65;69.65
74370;BME280;71062;44.520;11.342;2024-02-23T05:01:12;99312.47;;;14.72;69.19
74370;BME280;71062;44.520;11.342;2024-02-23T05:03:38;99293.84;;;14.71;69.03
74370;BME280;71062;44.520;11.342;2024-02-23T05:06:04;99297.19;;;14.73;69.30
74370;BME280;71062;44.520;11.342;2024-02-23T05:08:30;99294.84;;;14.75;69.46
74370;BME280;71062;44.520;11.342;2024-02-23T05:10:59;99278.53;;;14.72;69.31
74370;BME280;71062;44.520;11.342;2024-02-23T05:13:25;99286.66;;;14.73;69.49
74370;BME280;71062;44.520;11.342;2024-02-23T05:15:51;99287.31;;;14.79;69.49
74370;BME280;71062;44.520;11.342;2024-02-23T05:18:16;99283.03;;;14.73;69.72
74370;BME280;71062;44.520;11.342;2024-02-23T05:20:42;99287.78;;;14.81;69.57
74370;BME280;71062;44.520;11.342;2024-02-23T05:23:08;99273.94;;;14.88;69.14
74370;BME280;71062;44.520;11.342;2024-02-23T05:25:34;99247.50;;;14.84;69.62
74370;BME280;71062;44.520;11.342;2024-02-23T05:28:00;99249.88;;;14.82;69.69
74370;BME280;71062;44.520;11.342;2024-02-23T05:30:25;99256.69;;;14.81;70.11
74370;BME280;71062;44.520;11.342;2024-02-23T05:32:55;99236.53;;;14.82;70.00
74370;BME280;71062;44.520;11.342;2024-02-23T05:35:20;99223.09;;;14.79;70.23
74370;BME280;71062;44.520;11.342;2024-02-23T05:37:46;99228.38;;;14.81;70.41
74370;BME280;71062;44.520;11.342;2024-02-23T05:40:11;99213.75;;;14.79;71.12
74370;BME280;71062;44.520;11.342;2024-02-23T05:42:37;99207.31;;;14.78;71.20
74370;BME280;71062;44.520;11.342;2024-02-23T05:45:03;99204.78;;;14.77;72.05
74370;BME280;71062;44.520;11.342;2024-02-23T05:47:40;99193.03;;;14.75;72.36
74370;BME280;71062;44.520;11.342;2024-02-23T05:50:07;99181.72;;;14.75;72.91
74370;BME280;71062;44.520;11.342;2024-02-23T05:52:35;99201.69;;;14.70;73.62
74370;BME280;71062;44.520;11.342;2024-02-23T05:55:02;99182.25;;;14.68;73.97
74370;BME280;71062;44.520;11.342;2024-02-23T05:57:29;99198.41;;;14.68;73.97
74370;BME280;71062;44.520;11.342;2024-02-23T05:59:55;99203.16;;;14.76;74.07
74370;BME280;71062;44.520;11.342;2024-02-23T06:02:22;99176.72;;;14.72;74.56
74370;BME280;71062;44.520;11.342;2024-02-23T06:04:48;99165.84;;;14.62;74.95
74370;BME280;71062;44.520;11.342;2024-02-23T06:07:14;99155.28;;;14.71;75.22
74370;BME280;71062;44.520;11.342;2024-02-23T06:09:45;99183.84;;;14.78;75.44
74370;BME280;71062;44.520;11.342;2024-02-23T06:12:11;99163.78;;;14.71;76.33
74370;BME280;71062;44.520;11.342;2024-02-23T06:14:36;99172.75;;;14.73;76.93
74370;BME280;71062;44.520;11.342;2024-02-23T06:17:02;99185.69;;;14.74;76.51
74370;BME280;71062;44.520;11.342;2024-02-23T06:19:28;99150.13;;;14.73;76.64
74370;BME280;71062;44.520;11.342;2024-02-23T06:21:54;99172.59;;;14.69;76.57
74370;BME280;71062;44.520;11.342;2024-02-23T06:24:19;99170.13;;;14.68;77.54
74370;BME280;71062;44.520;11.342;2024-02-23T06:26:45;99163.72;;;14.59;78.02
74370;BME280;71062;44.520;11.342;2024-02-23T06:29:11;99161.22;;;14.57;78.10
74370;BME280;71062;44.520;11.342;2024-02-23T06:31:38;99140.94;;;14.55;78.33
74370;BME280;71062;44.520;11.342;2024-02-23T06:34:05;99154.78;;;14.69;78.12
74370;BME280;71062;44.520;11.342;2024-02-23T06:36:30;99142.50;;;14.65;77.99
74370;BME280;71062;44.520;11.342;2024-02-23T06:38:56;99135.91;;;14.61;78.35
74370;BME280;71062;44.520;11.342;2024-02-23T06:41:21;99136.19;;;14.68;78.52
74370;BME280;71062;44.520;11.342;2024-02-23T06:43:47;99135.00;;;14.69;78.29
74370;BME280;71062;44.520;11.342;2024-02-23T06:46:13;99125.94;;;14.75;78.50
74370;BME280;71062;44.520;11.342;2024-02-23T06:48:38;99124.19;;;14.71;78.39
74370;BME280;71062;44.520;11.342;2024-02-23T06:51:05;99115.72;;;14.83;77.53
74370;BME280;71062;44.520;11.342;2024-02-23T06:53:30;99107.72;;;14.85;77.97
74370;BME280;71062;44.520;11.342;2024-02-23T06:55:56;99098.63;;;14.79;78.80
74370;BME280;71062;44.520;11.342;2024-02-23T06:58:21;99109.38;;;14.86;78.50
74370;BME280;71062;44.520;11.342;2024-02-23T07:00:48;99061.19;;;14.94;77.89
74370;BME280;71062;44.520;11.342;2024-02-23T07:03:13;99115.56;;;15.00;77.39
74370;BME280;71062;44.520;11.342;2024-02-23T07:05:40;99113.91;;;14.99;77.43
74370;BME280;71062;44.520;11.342;2024-02-23T07:08:08;99108.94;;;14.96;77.05
74370;BME280;71062;44.520;11.342;2024-02-23T07:10:33;99129.22;;;14.98;77.24
74370;BME280;71062;44.520;11.342;2024-02-23T07:12:59;99136.53;;;14.99;77.11
74370;BME280;71062;44.520;11.342;2024-02-23T07:15:25;99137.47;;;15.03;77.18
74370;BME280;71062;44.520;11.342;2024-02-23T07:17:54;99122.03;;;15.00;77.10
74370;BME280;71062;44.520;11.342;2024-02-23T07:20:19;99122.19;;;15.04;76.77
74370;BME280;71062;44.520;11.342;2024-02-23T07:22:46;99113.59;;;15.12;76.50
74370;BME280;71062;44.520;11.342;2024-02-23T07:25:15;99136.72;;;15.14;76.81
74370;BME280;71062;44.520;11.342;2024-02-23T07:27:41;99126.69;;;15.17;75.97
74370;BME280;71062;44.520;11.342;2024-02-23T07:30:07;99144.38;;;15.26;76.61
74370;BME280;71062;44.520;11.342;2024-02-23T07:32:33;99151.69;;;15.15;76.81
74370;BME280;71062;44.520;11.342;2024-02-23T07:34:58;99164.91;;;15.23;76.73
74370;BME280;71062;44.520;11.342;2024-02-23T07:37:26;99159.00;;;15.16;77.29
74370;BME280;71062;44.520;11.342;2024-02-23T07:39:52;99166.56;;;15.24;77.58
74370;BME280;71062;44.520;11.342;2024-02-23T07:42:18;99161.59;;;15.21;77.99
74370;BME280;71062;44.520;11.342;2024-02-23T07:44:44;99171.50;;;15.15;78.35
74370;BME280;71062;44.520;11.342;2024-02-23T07:47:11;99180.25;;;15.22;78.49
74370;BME280;71062;44.520;11.342;2024-02-23T07:49:37;99181.41;;;15.21;78.52
74370;BME280;71062;44.520;11.342;2024-02-23T07:52:03;99174.91;;;15.20;78.93
74370;BME280;71062;44.520;11.342;2024-02-23T07:54:29;99179.06;;;15.23;78.67
74370;BME280;71062;44.520;11.342;2024-02-23T07:56:54;99168.69;;;15.15;79.13
74370;BME280;71062;44.520;11.342;2024-02-23T07:59:21;99192.38;;;15.22;79.75
74370;BME280;71062;44.520;11.342;2024-02-23T08:01:46;99168.94;;;15.22;79.71
74370;BME280;71062;44.520;11.342;2024-02-23T08:04:12;99167.84;;;15.14;80.00
74370;BME280;71062;44.520;11.342;2024-02-23T08:06:39;99179.53;;;15.25;79.75
74370;BME280;71062;44.520;11.342;2024-02-23T08:09:05;99151.94;;;15.22;79.58
74370;BME280;71062;44.520;11.342;2024-02-23T08:11:30;99125.16;;;15.19;79.38
74370;BME280;71062;44.520;11.342;2024-02-23T08:13:56;99135.66;;;15.31;79.24
74370;BME280;71062;44.520;11.342;2024-02-23T08:16:21;99139.47;;;15.35;78.63
74370;BME280;71062;44.520;11.342;2024-02-23T08:18:47;99143.78;;;15.41;78.54
74370;BME280;71062;44.520;11.342;2024-02-23T08:21:13;99155.59;;;15.55;78.25
74370;BME280;71062;44.520;11.342;2024-02-23T08:23:38;99135.75;;;15.43;77.09
74370;BME280;71062;44.520;11.342;2024-02-23T08:26:06;99148.38;;;15.57;76.44
74370;BME280;71062;44.520;11.342;2024-02-23T08:28:31;99166.09;;;15.54;76.69
74370;BME280;71062;44.520;11.342;2024-02-23T08:30:57;99154.88;;;15.58;76.70
74370;BME280;71062;44.520;11.342;2024-02-23T08:33:23;99148.75;;;15.68;75.73
74370;BME280;71062;44.520;11.342;2024-02-23T08:35:48;99152.19;;;15.74;74.38
74370;BME280;71062;44.520;11.342;2024-02-23T08:38:14;99154.91;;;15.82;74.48
74370;BME280;71062;44.520;11.342;2024-02-23T08:40:39;99131.50;;;15.85;73.66
74370;BME280;71062;44.520;11.342;2024-02-23T08:43:05;99130.69;;;15.97;73.72
74370;BME280;71062;44.520;11.342;2024-02-23T08:45:31;99116.19;;;15.86;73.63
74370;BME280;71062;44.520;11.342;2024-02-23T08:47:56;99102.50;;;15.76;73.16
74370;BME280;71062;44.520;11.342;2024-02-23T08:50:22;99124.81;;;15.90;73.05
74370;BME280;71062;44.520;11.342;2024-02-23T08:52:48;99113.34;;;15.98;72.94
74370;BME280;71062;44.520;11.342;2024-02-23T08:55:16;99110.97;;;16.00;72.78
74370;BME280;71062;44.520;11.342;2024-02-23T08:57:43;99119.84;;;15.99;72.85
74370;BME280;71062;44.520;11.342;2024-02-23T09:00:09;99117.69;;;15.96;73.13
74370;BME280;71062;44.520;11.342;2024-02-23T09:02:35;99120.41;;;15.92;73.38
74370;BME280;71062;44.520;11.342;2024-02-23T09:05:03;99109.81;;;15.77;73.62
74370;BME280;71062;44.520;11.342;2024-02-23T09:07:30;99131.88;;;15.96;73.36
74370;BME280;71062;44.520;11.342;2024-02-23T09:09:55;99126.69;;;15.86;73.67
74370;BME280;71062;44.520;11.342;2024-02-23T09:12:28;99151.81;;;15.87;74.06
74370;BME280;71062;44.520;11.342;2024-02-23T09:14:54;99155.13;;;15.89;74.01
74370;BME280;71062;44.520;11.342;2024-02-23T09:17:19;99152.53;;;15.84;74.25
74370;BME280;71062;44.520;11.342;2024-02-23T09:19:46;99150.41;;;15.81;74.93
74370;BME280;71062;44.520;11.342;2024-02-23T09:22:17;99109.09;;;15.68;74.01
74370;BME280;71062;44.520;11.342;2024-02-23T09:24:53;99156.56;;;15.83;74.21
74370;BME280;71062;44.520;11.342;2024-02-23T09:27:21;99150.66;;;15.76;74.28
74370;BME280;71062;44.520;11.342;2024-02-23T09:29:47;99174.00;;;15.85;74.54
74370;BME280;71062;44.520;11.342;2024-02-23T09:32:12;99170.25;;;15.81;74.78
74370;BME280;71062;44.520;11.342;2024-02-23T09:34:38;99181.59;;;15.81;74.50
74370;BME280;71062;44.520;11.342;2024-02-23T09:37:06;99198.44;;;15.33;76.12
74370;BME280;71062;44.520;11.342;2024-02-23T09:39:32;99212.28;;;14.52;79.05
74370;BME280;71062;44.520;11.342;2024-02-23T09:41:58;99210.69;;;13.84;82.47
74370;BME280;71062;44.520;11.342;2024-02-23T09:44:27;99210.34;;;13.39;85.16
74370;BME280;71062;44.520;11.342;2024-02-23T09:46:57;99225.00;;;13.16;88.54
74370;BME280;71062;44.520;11.342;2024-02-23T09:49:23;99242.44;;;13.18;89.92
74370;BME280;71062;44.520;11.342;2024-02-23T09:51:49;99219.19;;;12.87;93.40
74370;BME280;71062;44.520;11.342;2024-02-23T09:54:15;99226.47;;;12.45;97.17
74370;BME280;71062;44.520;11.342;2024-02-23T09:56:40;99238.56;;;12.46;100.00
74370;BME280;71062;44.520;11.342;2024-02-23T09:59:06;99265.56;;;12.29;100.00
74370;BME280;71062;44.520;11.342;2024-02-23T10:01:32;99263.84;;;12.11;100.00
74370;BME280;71062;44.520;11.342;2024-02-23T10:04:00;99248.56;;;11.95;100.00
74370;BME280;71062;44.520;11.342;2024-02-23T10:06:27;99248.53;;;11.87;100.00
74370;BME280;71062;44.520;11.342;2024-02-23T10:08:53;99267.53;;;11.81;100.00
74370;BME280;71062;44.520;11.342;2024-02-23T10:11:22;99270.03;;;11.83;100.00
74370;BME280;71062;44.520;11.342;2024-02-23T10:13:49;99230.34;;;11.62;100.00
74370;BME280;71062;44.520;11.342;2024-02-23T10:16:16;99230.34;;;11.62;100.00
74370;BME280;71062;44.520;11.342;2024-02-23T10:18:42;99263.84;;;11.72;100.00
74370;BME280;71062;44.520;11.342;2024-02-23T10:21:08;99250.97;;;11.49;100.00
74370;BME280;71062;44.520;11.342;2024-02-23T10:23:34;99253.41;;;11.42;100.00
74370;BME280;71062;44.520;11.342;2024-02-23T10:25:59;99237.91;;;11.22;100.00
74370;BME280;71062;44.520;11.342;2024-02-23T10:28:25;99249.25;;;11.40;100.00
74370;BME280;71062;44.520;11.342;2024-02-23T10:30:51;99262.63;;;11.34;100.00
74370;BME280;71062;44.520;11.342;2024-02-23T10:33:22;99263.69;;;11.16;100.00
74370;BME280;71062;44.520;11.342;2024-02-23T10:35:53;99243.59;;;11.09;100.00
74370;BME280;71062;44.520;11.342;2024-02-23T10:38:21;99253.94;;;11.22;100.00
74370;BME280;71062;44.520;11.342;2024-02-23T10:40:50;99246.22;;;11.05;100.00
74370;BME280;71062;44.520;11.342;2024-02-23T10:43:19;99246.22;;;11.05;100.00
74370;BME280;71062;44.520;11.342;2024-02-23T10:45:48;99247.81;;;10.98;100.00
74370;BME280;71062;44.520;11.342;2024-02-23T10:48:15;99269.09;;;10.90;100.00
74370;BME280;71062;44.520;11.342;2024-02-23T10:50:41;99262.44;;;10.86;100.00
74370;BME280;71062;44.520;11.342;2024-02-23T10:53:10;99246.78;;;10.72;100.00
74370;BME280;71062;44.520;11.342;2024-02-23T10:55:37;99272.06;;;10.72;100.00
74370;BME280;71062;44.520;11.342;2024-02-23T10:58:06;99266.06;;;10.65;100.00
74370;BME280;71062;44.520;11.342;2024-02-23T11:00:37;99266.25;;;10.68;100.00
74370;BME280;71062;44.520;11.342;2024-02-23T11:03:04;99265.22;;;10.64;100.00
74370;BME280;71062;44.520;11.342;2024-02-23T11:05:33;99269.38;;;10.67;100.00
74370;BME280;71062;44.520;11.342;2024-02-23T11:07:59;99270.25;;;10.54;100.00
74370;BME280;71062;44.520;11.342;2024-02-23T11:10:25;99257.75;;;10.60;100.00
74370;BME280;71062;44.520;11.342;2024-02-23T11:13:00;99276.25;;;10.61;100.00
74370;BME280;71062;44.520;11.342;2024-02-23T11:15:28;99282.75;;;10.34;100.00
74370;BME280;71062;44.520;11.342;2024-02-23T11:17:54;99297.66;;;10.35;100.00
74370;BME280;71062;44.520;11.342;2024-02-23T11:20:20;99292.78;;;10.27;100.00
74370;BME280;71062;44.520;11.342;2024-02-23T11:22:54;99272.06;;;10.23;100.00
74370;BME280;71062;44.520;11.342;2024-02-23T11:25:20;99285.03;;;10.32;100.00
74370;BME280;71062;44.520;11.342;2024-02-23T11:27:49;99292.13;;;10.30;100.00
74370;BME280;71062;44.520;11.342;2024-02-23T11:30:17;99286.53;;;10.30;100.00
74370;BME280;71062;44.520;11.342;2024-02-23T11:32:44;99282.44;;;10.36;100.00
74370;BME280;71062;44.520;11.342;2024-02-23T11:35:15;99291.72;;;10.23;100.00
74370;BME280;71062;44.520;11.342;2024-02-23T11:37:46;99286.75;;;10.20;100.00
74370;BME280;71062;44.520;11.342;2024-02-23T11:40:13;99292.06;;;10.21;100.00
74370;BME280;71062;44.520;11.342;2024-02-23T11:42:42;99291.13;;;10.12;100.00
74370;BME280;71062;44.520;11.342;2024-02-23T11:45:11;99299.22;;;10.13;100.00
74370;BME280;71062;44.520;11.342;2024-02-23T11:47:37;99282.78;;;10.21;100.00
74370;BME280;71062;44.520;11.342;2024-02-23T11:50:07;99283.63;;;10.21;100.00
74370;BME280;71062;44.520;11.342;2024-02-23T11:52:37;99287.34;;;10.17;100.00
74370;BME280;71062;44.520;11.342;2024-02-23T11:55:03;99290.91;;;10.08;100.00
74370;BME280;71062;44.520;11.342;2024-02-23T11:57:35;99294.09;;;10.02;100.00
74370;BME280;71062;44.520;11.342;2024-02-23T12:00:02;99299.31;;;10.08;100.00
74370;BME280;71062;44.520;11.342;2024-02-23T12:02:28;99289.75;;;10.09;100.00
74370;BME280;71062;44.520;11.342;2024-02-23T12:04:54;99271.75;;;9.97;100.00
74370;BME280;71062;44.520;11.342;2024-02-23T12:07:19;99295.88;;;10.11;100.00
74370;BME280;71062;44.520;11.342;2024-02-23T12:09:47;99306.03;;;9.94;100.00
74370;BME280;71062;44.520;11.342;2024-02-23T12:12:13;99282.03;;;10.01;100.00
74370;BME280;71062;44.520;11.342;2024-02-23T12:14:40;99275.69;;;9.96;100.00
74370;BME280;71062;44.520;11.342;2024-02-23T12:17:08;99263.63;;;9.95;100.00
74370;BME280;71062;44.520;11.342;2024-02-23T12:19:40;99281.72;;;10.03;100.00
74370;BME280;71062;44.520;11.342;2024-02-23T12:22:07;99279.75;;;10.03;100.00
74370;BME280;71062;44.520;11.342;2024-02-23T12:24:34;99270.50;;;10.03;100.00
74370;BME280;71062;44.520;11.342;2024-02-23T12:27:00;99266.66;;;9.99;100.00
74370;BME280;71062;44.520;11.342;2024-02-23T12:29:25;99260.81;;;9.95;100.00
74370;BME280;71062;44.520;11.342;2024-02-23T12:32:05;99274.66;;;10.05;100.00
74370;BME280;71062;44.520;11.342;2024-02-23T12:34:34;99263.13;;;10.07;100.00
74370;BME280;71062;44.520;11.342;2024-02-23T12:37:02;99260.56;;;10.10;100.00
74370;BME280;71062;44.520;11.342;2024-02-23T12:39:28;99259.28;;;10.03;100.00
74370;BME280;71062;44.520;11.342;2024-02-23T12:41:55;99236.59;;;9.99;100.00
74370;BME280;71062;44.520;11.342;2024-02-23T12:44:22;99246.81;;;10.23;100.00